sensor_id;sensor_type;location;lat;lon;timestamp;pressure;altitude;pressure_sealevel;temperature;humidity
69200;BME280;56313;49.804;9.952;2022-09-20T00:02:07;99661.59;;;9.93;79.51
69200;BME280;56313;49.804;9.952;2022-09-20T00:04:32;99666.69;;;10.05;79.46
69200;BME280;56313;49.804;9.952;2022-09-20T00:06:57;99658.00;;;10.04;79.75
69200;BME280;56313;49.804;9.952;2022-09-20T00:09:22;99672.47;;;9.98;79.79
69200;BME280;56313;49.804;9.952;2022-09-20T00:11:48;99666.53;;;9.96;79.92
69200;BME280;56313;49.804;9.952;2022-09-20T00:14:16;99667.75;;;9.92;79.41
69200;BME280;56313;49.804;9.952;2022-09-20T00:16:41;99662.78;;;9.89;79.98
69200;BME280;56313;49.804;9.952;2022-09-20T00:19:07;99666.09;;;9.81;80.63
69200;BME280;56313;49.804;9.952;2022-09-20T00:21:33;99667.59;;;9.84;80.62
69200;BME280;56313;49.804;9.952;2022-09-20T00:23:58;99666.38;;;9.88;80.05
69200;BME280;56313;49.804;9.952;2022-09-20T00:26:24;99669.63;;;9.70;80.98
69200;BME280;56313;49.804;9.952;2022-09-20T00:28:50;99668.13;;;9.78;80.77
69200;BME280;56313;49.804;9.952;2022-09-20T00:31:15;99675.88;;;9.89;80.26
69200;BME280;56313;49.804;9.952;2022-09-20T00:33:41;99676.56;;;9.91;80.01
69200;BME280;56313;49.804;9.952;2022-09-20T00:36:25;99678.84;;;9.74;80.83
69200;BME280;56313;49.804;9.952;2022-09-20T00:39:00;99675.81;;;9.69;81.20
69200;BME280;56313;49.804;9.952;2022-09-20T00:41:27;99674.13;;;9.68;81.00
69200;BME280;56313;49.804;9.952;2022-09-20T00:43:52;99681.78;;;9.81;80.88
69200;BME280;56313;49.804;9.952;2022-09-20T00:49:02;99688.19;;;9.67;80.96
69200;BME280;56313;49.804;9.952;2022-09-20T00:51:29;99681.94;;;9.58;81.01
69200;BME280;56313;49.804;9.952;2022-09-20T00:53:56;99690.19;;;9.54;81.26
69200;BME280;56313;49.804;9.952;2022-09-20T00:56:28;99680.56;;;9.54;81.41
69200;BME280;56313;49.804;9.952;2022-09-20T01:01:23;99677.03;;;9.65;81.23
69200;BME280;56313;49.804;9.952;2022-09-20T01:03:49;99689.38;;;9.53;81.29
69200;BME280;56313;49.804;9.952;2022-09-20T01:06:14;99683.56;;;9.49;81.27
69200;BME280;56313;49.804;9.952;2022-09-20T01:08:41;99682.09;;;9.67;81.13
69200;BME280;56313;49.804;9.952;2022-09-20T01:11:10;99679.06;;;9.61;81.11
69200;BME280;56313;49.804;9.952;2022-09-20T01:13:35;99674.47;;;9.75;81.13
69200;BME280;56313;49.804;9.952;2022-09-20T01:16:00;99685.34;;;9.80;80.69
69200;BME280;56313;49.804;9.952;2022-09-20T01:18:27;99680.94;;;9.81;80.31
69200;BME280;56313;49.804;9.952;2022-09-20T01:20:52;99678.19;;;9.82;80.36
69200;BME280;56313;49.804;9.952;2022-09-20T01:28:12;99676.94;;;9.76;80.71
69200;BME280;56313;49.804;9.952;2022-09-20T01:30:39;99672.94;;;9.72;80.78
69200;BME280;56313;49.804;9.952;2022-09-20T01:33:14;99671.81;;;9.65;81.08
69200;BME280;56313;49.804;9.952;2022-09-20T01:35:43;99677.31;;;9.72;81.00
69200;BME280;56313;49.804;9.952;2022-09-20T01:38:14;99683.28;;;9.74;80.87
69200;BME280;56313;49.804;9.952;2022-09-20T01:43:17;99681.19;;;9.68;81.01
69200;BME280;56313;49.804;9.952;2022-09-20T01:45:47;99676.06;;;9.66;81.30
69200;BME280;56313;49.804;9.952;2022-09-20T01:48:17;99675.41;;;9.74;81.32
69200;BME280;56313;49.804;9.952;2022-09-20T02:22:30;99677.22;;;8.99;83.88
69200;BME280;56313;49.804;9.952;2022-09-20T02:30:28;99692.19;;;8.97;84.19
69200;BME280;56313;49.804;9.952;2022-09-20T02:35:41;99694.91;;;8.74;84.92
69200;BME280;56313;49.804;9.952;2022-09-20T02:38:10;99690.84;;;8.70;84.96
69200;BME280;56313;49.804;9.952;2022-09-20T02:40:45;99696.31;;;8.67;84.91
69200;BME280;56313;49.804;9.952;2022-09-20T02:45:58;99686.66;;;8.58;85.71
69200;BME280;56313;49.804;9.952;2022-09-20T02:51:19;99683.78;;;8.49;85.56
69200;BME280;56313;49.804;9.952;2022-09-20T02:53:58;99682.72;;;8.52;85.54
69200;BME280;56313;49.804;9.952;2022-09-20T02:57:11;99687.56;;;8.57;85.49
69200;BME280;56313;49.804;9.952;2022-09-20T03:01:51;99695.53;;;8.44;85.42
69200;BME280;56313;49.804;9.952;2022-09-20T03:07:10;99687.13;;;8.40;86.04
69200;BME280;56313;49.804;9.952;2022-09-20T03:09:39;99687.59;;;8.45;86.25
69200;BME280;56313;49.804;9.952;2022-09-20T03:14:40;99686.16;;;8.64;85.06
69200;BME280;56313;49.804;9.952;2022-09-20T03:27:56;99691.28;;;8.43;85.51
69200;BME280;56313;49.804;9.952;2022-09-20T03:30:26;99698.28;;;8.54;85.24
69200;BME280;56313;49.804;9.952;2022-09-20T03:35:24;99704.78;;;8.48;85.53
69200;BME280;56313;49.804;9.952;2022-09-20T03:40:27;99703.03;;;8.37;85.97
69200;BME280;56313;49.804;9.952;2022-09-20T03:43:03;99696.03;;;8.37;85.95
69200;BME280;56313;49.804;9.952;2022-09-20T03:48:20;99705.28;;;8.30;86.13
69200;BME280;56313;49.804;9.952;2022-09-20T03:53:48;99707.69;;;8.22;86.12
69200;BME280;56313;49.804;9.952;2022-09-20T03:59:17;99707.34;;;8.15;86.05
69200;BME280;56313;49.804;9.952;2022-09-20T04:17:26;99714.72;;;7.98;86.52
69200;BME280;56313;49.804;9.952;2022-09-20T04:20:02;99716.34;;;7.65;87.52
69200;BME280;56313;49.804;9.952;2022-09-20T04:22:31;99715.88;;;7.60;88.28
69200;BME280;56313;49.804;9.952;2022-09-20T04:27:24;99715.41;;;7.66;88.27
69200;BME280;56313;49.804;9.952;2022-09-20T04:29:57;99713.50;;;7.68;87.87
69200;BME280;56313;49.804;9.952;2022-09-20T04:32:43;99723.13;;;7.79;87.84
69200;BME280;56313;49.804;9.952;2022-09-20T04:38:13;99724.28;;;7.64;88.44
69200;BME280;56313;49.804;9.952;2022-09-20T04:45:56;99720.88;;;8.09;86.78
69200;BME280;56313;49.804;9.952;2022-09-20T05:21:35;99745.13;;;8.67;85.52
69200;BME280;56313;49.804;9.952;2022-09-20T05:31:51;99756.63;;;8.53;85.77
69200;BME280;56313;49.804;9.952;2022-09-20T05:36:56;99754.53;;;8.58;85.40
69200;BME280;56313;49.804;9.952;2022-09-20T05:39:31;99753.34;;;8.62;85.56
69200;BME280;56313;49.804;9.952;2022-09-20T05:42:07;99756.91;;;8.61;85.67
69200;BME280;56313;49.804;9.952;2022-09-20T05:57:38;99770.91;;;8.71;85.50
69200;BME280;56313;49.804;9.952;2022-09-20T06:10:58;99775.88;;;9.07;83.01
69200;BME280;56313;49.804;9.952;2022-09-20T06:16:12;99773.06;;;8.99;83.13
69200;BME280;56313;49.804;9.952;2022-09-20T06:19:00;99765.63;;;9.16;82.72
69200;BME280;56313;49.804;9.952;2022-09-20T06:22:11;99775.63;;;9.10;82.70
69200;BME280;56313;49.804;9.952;2022-09-20T06:26:47;99772.44;;;9.07;82.76
69200;BME280;56313;49.804;9.952;2022-09-20T06:29:14;99774.69;;;9.11;83.09
69200;BME280;56313;49.804;9.952;2022-09-20T06:31:42;99782.78;;;9.08;82.84
69200;BME280;56313;49.804;9.952;2022-09-20T06:34:08;99780.78;;;9.00;83.16
69200;BME280;56313;49.804;9.952;2022-09-20T06:36:38;99785.94;;;9.12;82.71
69200;BME280;56313;49.804;9.952;2022-09-20T06:42:09;99780.56;;;9.46;81.99
69200;BME280;56313;49.804;9.952;2022-09-20T06:44:34;99787.19;;;9.29;82.18
69200;BME280;56313;49.804;9.952;2022-09-20T06:47:05;99782.47;;;9.66;82.81
69200;BME280;56313;49.804;9.952;2022-09-20T06:49:32;99783.81;;;9.38;81.96
69200;BME280;56313;49.804;9.952;2022-09-20T06:51:59;99792.00;;;9.45;82.00
69200;BME280;56313;49.804;9.952;2022-09-20T06:54:25;99792.44;;;9.93;82.05
69200;BME280;56313;49.804;9.952;2022-09-20T06:56:51;99791.34;;;9.74;80.81
69200;BME280;56313;49.804;9.952;2022-09-20T06:59:16;99791.25;;;9.86;80.05
69200;BME280;56313;49.804;9.952;2022-09-20T07:01:41;99792.69;;;9.69;80.61
69200;BME280;56313;49.804;9.952;2022-09-20T07:04:07;99794.81;;;10.37;78.56
69200;BME280;56313;49.804;9.952;2022-09-20T07:06:33;99795.94;;;10.13;78.09
69200;BME280;56313;49.804;9.952;2022-09-20T07:08:59;99793.41;;;10.74;76.44
69200;BME280;56313;49.804;9.952;2022-09-20T07:11:24;99802.34;;;9.99;78.45
69200;BME280;56313;49.804;9.952;2022-09-20T07:13:50;99806.66;;;10.00;78.24
69200;BME280;56313;49.804;9.952;2022-09-20T07:16:16;99800.53;;;9.90;78.31
69200;BME280;56313;49.804;9.952;2022-09-20T07:18:41;99798.59;;;9.92;77.97
69200;BME280;56313;49.804;9.952;2022-09-20T07:21:10;99793.69;;;9.99;78.64
69200;BME280;56313;49.804;9.952;2022-09-20T07:23:37;99804.06;;;10.42;76.84
69200;BME280;56313;49.804;9.952;2022-09-20T07:26:02;99802.91;;;10.24;76.87
69200;BME280;56313;49.804;9.952;2022-09-20T07:28:29;99798.19;;;10.18;77.53
69200;BME280;56313;49.804;9.952;2022-09-20T07:30:54;99801.78;;;10.27;77.21
69200;BME280;56313;49.804;9.952;2022-09-20T07:33:20;99806.09;;;10.38;77.05
69200;BME280;56313;49.804;9.952;2022-09-20T07:35:49;99801.66;;;10.29;77.24
69200;BME280;56313;49.804;9.952;2022-09-20T07:38:15;99809.91;;;10.24;77.41
69200;BME280;56313;49.804;9.952;2022-09-20T07:40:41;99806.97;;;10.48;76.17
69200;BME280;56313;49.804;9.952;2022-09-20T07:43:06;99818.50;;;10.36;75.74
69200;BME280;56313;49.804;9.952;2022-09-20T07:45:32;99816.00;;;10.24;76.48
69200;BME280;56313;49.804;9.952;2022-09-20T07:47:58;99823.09;;;10.12;76.23
69200;BME280;56313;49.804;9.952;2022-09-20T07:50:23;99815.66;;;11.10;75.53
69200;BME280;56313;49.804;9.952;2022-09-20T07:52:49;99824.41;;;10.28;74.98
69200;BME280;56313;49.804;9.952;2022-09-20T07:55:14;99814.13;;;11.17;72.10
69200;BME280;56313;49.804;9.952;2022-09-20T07:57:39;99828.31;;;10.44;74.16
69200;BME280;56313;49.804;9.952;2022-09-20T08:00:05;99825.25;;;10.38;74.46
69200;BME280;56313;49.804;9.952;2022-09-20T08:02:31;99823.88;;;10.66;73.87
69200;BME280;56313;49.804;9.952;2022-09-20T08:04:57;99831.88;;;10.74;73.07
69200;BME280;56313;49.804;9.952;2022-09-20T08:07:22;99833.69;;;10.83;72.48
69200;BME280;56313;49.804;9.952;2022-09-20T08:09:48;99822.28;;;11.14;72.25
69200;BME280;56313;49.804;9.952;2022-09-20T08:12:13;99835.78;;;11.09;71.35
69200;BME280;56313;49.804;9.952;2022-09-20T08:14:38;99833.19;;;11.29;71.29
69200;BME280;56313;49.804;9.952;2022-09-20T08:17:05;99836.22;;;11.14;70.08
69200;BME280;56313;49.804;9.952;2022-09-20T08:19:30;99839.22;;;11.89;71.64
69200;BME280;56313;49.804;9.952;2022-09-20T08:21:55;99838.84;;;11.64;68.91
69200;BME280;56313;49.804;9.952;2022-09-20T08:24:20;99848.09;;;11.28;68.89
69200;BME280;56313;49.804;9.952;2022-09-20T08:26:46;99853.91;;;11.32;69.85
69200;BME280;56313;49.804;9.952;2022-09-20T08:29:12;99855.56;;;11.33;67.62
69200;BME280;56313;49.804;9.952;2022-09-20T08:31:39;99839.69;;;11.35;69.15
69200;BME280;56313;49.804;9.952;2022-09-20T08:34:06;99855.97;;;11.09;68.52
69200;BME280;56313;49.804;9.952;2022-09-20T08:36:33;99847.53;;;11.05;68.15
69200;BME280;56313;49.804;9.952;2022-09-20T08:38:59;99850.97;;;11.06;69.11
69200;BME280;56313;49.804;9.952;2022-09-20T08:41:46;99852.50;;;11.68;67.88
69200;BME280;56313;49.804;9.952;2022-09-20T08:46:38;99853.34;;;11.28;66.63
69200;BME280;56313;49.804;9.952;2022-09-20T08:49:06;99852.09;;;11.23;68.12
69200;BME280;56313;49.804;9.952;2022-09-20T08:51:37;99861.06;;;11.30;67.06
69200;BME280;56313;49.804;9.952;2022-09-20T08:54:04;99852.50;;;11.48;67.76
69200;BME280;56313;49.804;9.952;2022-09-20T08:56:34;99852.59;;;11.96;69.92
69200;BME280;56313;49.804;9.952;2022-09-20T08:59:03;99846.59;;;11.46;65.85
69200;BME280;56313;49.804;9.952;2022-09-20T09:01:29;99847.28;;;11.28;67.48
69200;BME280;56313;49.804;9.952;2022-09-20T09:06:40;99846.31;;;11.59;68.18
69200;BME280;56313;49.804;9.952;2022-09-20T09:09:06;99844.50;;;11.39;67.64
69200;BME280;56313;49.804;9.952;2022-09-20T09:11:31;99850.59;;;11.10;68.51
69200;BME280;56313;49.804;9.952;2022-09-20T09:16:32;99856.78;;;11.39;68.56
69200;BME280;56313;49.804;9.952;2022-09-20T09:19:24;99850.03;;;11.26;68.97
69200;BME280;56313;49.804;9.952;2022-09-20T09:21:43;99849.06;;;11.47;68.75
69200;BME280;56313;49.804;9.952;2022-09-20T09:24:13;99850.84;;;11.66;68.49
69200;BME280;56313;49.804;9.952;2022-09-20T09:26:40;99856.13;;;11.37;68.75
69200;BME280;56313;49.804;9.952;2022-09-20T09:31:35;99853.75;;;11.44;68.87
69200;BME280;56313;49.804;9.952;2022-09-20T09:34:02;99847.81;;;11.51;68.35
69200;BME280;56313;49.804;9.952;2022-09-20T09:36:28;99853.59;;;11.75;69.47
69200;BME280;56313;49.804;9.952;2022-09-20T09:39:12;99853.91;;;11.62;67.54
69200;BME280;56313;49.804;9.952;2022-09-20T09:41:38;99850.69;;;11.78;67.58
69200;BME280;56313;49.804;9.952;2022-09-20T09:44:04;99853.56;;;11.95;66.80
69200;BME280;56313;49.804;9.952;2022-09-20T09:46:35;99852.47;;;11.77;67.47
69200;BME280;56313;49.804;9.952;2022-09-20T09:49:06;99845.00;;;12.12;65.48
69200;BME280;56313;49.804;9.952;2022-09-20T09:51:33;99849.31;;;11.94;64.78
69200;BME280;56313;49.804;9.952;2022-09-20T09:53:59;99845.94;;;12.01;64.78
69200;BME280;56313;49.804;9.952;2022-09-20T10:01:38;99844.44;;;12.09;63.69
69200;BME280;56313;49.804;9.952;2022-09-20T10:06:35;99838.34;;;12.18;64.13
69200;BME280;56313;49.804;9.952;2022-09-20T10:30:22;99822.53;;;12.84;60.03
69200;BME280;56313;49.804;9.952;2022-09-20T10:46:20;99826.41;;;12.80;59.56
69200;BME280;56313;49.804;9.952;2022-09-20T10:48:50;99831.94;;;12.59;59.77
69200;BME280;56313;49.804;9.952;2022-09-20T10:51:23;99822.06;;;12.71;59.17
69200;BME280;56313;49.804;9.952;2022-09-20T10:56:32;99829.91;;;12.52;59.97
69200;BME280;56313;49.804;9.952;2022-09-20T11:06:48;99823.28;;;13.94;56.86
69200;BME280;56313;49.804;9.952;2022-09-20T11:09:16;99820.03;;;13.74;56.05
69200;BME280;56313;49.804;9.952;2022-09-20T11:11:43;99813.88;;;13.65;55.51
69200;BME280;56313;49.804;9.952;2022-09-20T11:14:20;99824.88;;;13.42;56.94
69200;BME280;56313;49.804;9.952;2022-09-20T11:19:23;99817.88;;;14.74;66.70
69200;BME280;56313;49.804;9.952;2022-09-20T11:21:56;99828.72;;;13.29;58.75
69200;BME280;56313;49.804;9.952;2022-09-20T11:26:59;99836.44;;;13.13;58.46
69200;BME280;56313;49.804;9.952;2022-09-20T11:29:31;99840.19;;;13.10;59.31
69200;BME280;56313;49.804;9.952;2022-09-20T11:32:02;99836.72;;;14.52;69.96
69200;BME280;56313;49.804;9.952;2022-09-20T11:34:36;99837.16;;;14.74;61.81
69200;BME280;56313;49.804;9.952;2022-09-20T11:37:04;99835.91;;;14.95;61.75
69200;BME280;56313;49.804;9.952;2022-09-20T11:39:34;99831.88;;;14.31;55.86
69200;BME280;56313;49.804;9.952;2022-09-20T11:42:02;99840.59;;;14.66;55.88
69200;BME280;56313;49.804;9.952;2022-09-20T11:55:16;99827.84;;;13.84;63.65
69200;BME280;56313;49.804;9.952;2022-09-20T11:57:44;99827.50;;;14.48;61.75
69200;BME280;56313;49.804;9.952;2022-09-20T12:00:10;99822.91;;;15.77;67.64
69200;BME280;56313;49.804;9.952;2022-09-20T12:02:49;99821.09;;;15.27;55.24
69200;BME280;56313;49.804;9.952;2022-09-20T12:08:00;99815.25;;;16.15;67.01
69200;BME280;56313;49.804;9.952;2022-09-20T12:10:27;99811.84;;;15.73;53.19
69200;BME280;56313;49.804;9.952;2022-09-20T12:12:58;99812.56;;;14.22;53.55
69200;BME280;56313;49.804;9.952;2022-09-20T12:15:34;99813.38;;;14.66;55.41
69200;BME280;56313;49.804;9.952;2022-09-20T12:18:02;99808.22;;;14.04;54.55
69200;BME280;56313;49.804;9.952;2022-09-20T12:25:58;99806.47;;;13.87;53.30
69200;BME280;56313;49.804;9.952;2022-09-20T12:28:37;99817.16;;;14.20;54.77
69200;BME280;56313;49.804;9.952;2022-09-20T12:36:24;99815.31;;;14.47;51.83
69200;BME280;56313;49.804;9.952;2022-09-20T12:44:34;99833.06;;;12.84;63.91
69200;BME280;56313;49.804;9.952;2022-09-20T12:47:06;99824.97;;;12.67;65.92
69200;BME280;56313;49.804;9.952;2022-09-20T12:52:31;99822.75;;;12.91;66.52
69200;BME280;56313;49.804;9.952;2022-09-20T13:05:39;99815.06;;;12.61;63.46
69200;BME280;56313;49.804;9.952;2022-09-20T13:08:09;99816.22;;;12.77;63.62
69200;BME280;56313;49.804;9.952;2022-09-20T13:10:39;99812.44;;;12.61;64.05
69200;BME280;56313;49.804;9.952;2022-09-20T13:13:11;99812.31;;;12.81;62.83
69200;BME280;56313;49.804;9.952;2022-09-20T13:15:37;99816.38;;;12.75;62.79
69200;BME280;56313;49.804;9.952;2022-09-20T13:18:10;99814.06;;;13.09;61.37
69200;BME280;56313;49.804;9.952;2022-09-20T13:20:39;99818.19;;;13.11;61.55
69200;BME280;56313;49.804;9.952;2022-09-20T13:23:05;99815.94;;;13.16;61.44
69200;BME280;56313;49.804;9.952;2022-09-20T13:25:30;99822.59;;;13.29;62.48
69200;BME280;56313;49.804;9.952;2022-09-20T13:28:13;99819.59;;;13.05;64.64
69200;BME280;56313;49.804;9.952;2022-09-20T13:30:42;99823.47;;;12.65;67.96
69200;BME280;56313;49.804;9.952;2022-09-20T13:33:14;99818.31;;;12.45;69.06
69200;BME280;56313;49.804;9.952;2022-09-20T13:35:40;99813.84;;;12.56;68.93
69200;BME280;56313;49.804;9.952;2022-09-20T13:38:07;99824.00;;;12.40;70.61
69200;BME280;56313;49.804;9.952;2022-09-20T13:40:34;99815.44;;;12.66;70.34
69200;BME280;56313;49.804;9.952;2022-09-20T13:43:03;99812.94;;;12.93;71.42
69200;BME280;56313;49.804;9.952;2022-09-20T13:45:31;99816.22;;;12.95;67.41
69200;BME280;56313;49.804;9.952;2022-09-20T13:47:57;99815.69;;;12.73;68.25
69200;BME280;56313;49.804;9.952;2022-09-20T13:52:49;99828.56;;;12.38;67.25
69200;BME280;56313;49.804;9.952;2022-09-20T13:55:32;99831.19;;;12.38;67.27
69200;BME280;56313;49.804;9.952;2022-09-20T13:58:02;99825.06;;;12.48;68.83
69200;BME280;56313;49.804;9.952;2022-09-20T14:00:28;99829.22;;;12.50;69.21
69200;BME280;56313;49.804;9.952;2022-09-20T14:02:55;99820.25;;;12.71;66.47
69200;BME280;56313;49.804;9.952;2022-09-20T14:05:22;99817.63;;;12.71;65.05
69200;BME280;56313;49.804;9.952;2022-09-20T14:07:48;99814.75;;;12.64;66.12
69200;BME280;56313;49.804;9.952;2022-09-20T14:13:00;99820.97;;;12.91;63.89
69200;BME280;56313;49.804;9.952;2022-09-20T14:15:28;99818.19;;;13.11;66.29
69200;BME280;56313;49.804;9.952;2022-09-20T14:17:54;99816.63;;;13.00;63.80
69200;BME280;56313;49.804;9.952;2022-09-20T14:20:20;99822.06;;;12.89;63.42
69200;BME280;56313;49.804;9.952;2022-09-20T14:22:46;99838.59;;;12.99;65.29
69200;BME280;56313;49.804;9.952;2022-09-20T14:27:37;99839.53;;;12.62;62.70
69200;BME280;56313;49.804;9.952;2022-09-20T14:39:57;99836.25;;;12.22;65.83
69200;BME280;56313;49.804;9.952;2022-09-20T14:45:22;99833.22;;;12.26;65.68
69200;BME280;56313;49.804;9.952;2022-09-20T14:47:52;99830.47;;;12.46;64.84
69200;BME280;56313;49.804;9.952;2022-09-20T14:50:21;99828.69;;;12.47;66.82
69200;BME280;56313;49.804;9.952;2022-09-20T14:52:57;99820.94;;;12.17;64.92
69200;BME280;56313;49.804;9.952;2022-09-20T14:55:22;99824.81;;;12.03;64.86
69200;BME280;56313;49.804;9.952;2022-09-20T14:57:57;99831.72;;;12.14;66.45
69200;BME280;56313;49.804;9.952;2022-09-20T15:00:23;99833.88;;;12.28;67.49
69200;BME280;56313;49.804;9.952;2022-09-20T15:02:49;99831.81;;;12.22;67.11
69200;BME280;56313;49.804;9.952;2022-09-20T15:05:19;99828.97;;;12.06;67.14
69200;BME280;56313;49.804;9.952;2022-09-20T15:07:45;99825.09;;;12.00;67.31
69200;BME280;56313;49.804;9.952;2022-09-20T15:10:14;99828.53;;;12.20;66.92
69200;BME280;56313;49.804;9.952;2022-09-20T15:12:39;99827.53;;;12.21;69.39
69200;BME280;56313;49.804;9.952;2022-09-20T15:15:10;99828.34;;;12.32;68.72
69200;BME280;56313;49.804;9.952;2022-09-20T15:17:39;99828.94;;;12.15;67.27
69200;BME280;56313;49.804;9.952;2022-09-20T15:20:05;99827.59;;;12.11;66.99
69200;BME280;56313;49.804;9.952;2022-09-20T15:22:30;99825.31;;;12.26;67.25
69200;BME280;56313;49.804;9.952;2022-09-20T15:24:56;99827.91;;;12.36;67.54
69200;BME280;56313;49.804;9.952;2022-09-20T15:27:21;99829.34;;;12.49;67.97
69200;BME280;56313;49.804;9.952;2022-09-20T15:29:47;99826.63;;;12.40;65.12
69200;BME280;56313;49.804;9.952;2022-09-20T15:32:12;99819.44;;;12.43;65.88
69200;BME280;56313;49.804;9.952;2022-09-20T15:34:37;99823.22;;;12.58;64.81
69200;BME280;56313;49.804;9.952;2022-09-20T15:37:03;99819.97;;;12.46;65.26
69200;BME280;56313;49.804;9.952;2022-09-20T15:39:28;99822.88;;;12.43;65.54
69200;BME280;56313;49.804;9.952;2022-09-20T15:41:54;99833.75;;;12.58;66.98
69200;BME280;56313;49.804;9.952;2022-09-20T15:44:19;99835.59;;;12.48;68.03
69200;BME280;56313;49.804;9.952;2022-09-20T15:46:44;99828.41;;;12.68;68.21
69200;BME280;56313;49.804;9.952;2022-09-20T15:49:10;99831.94;;;12.31;68.78
69200;BME280;56313;49.804;9.952;2022-09-20T15:51:36;99835.31;;;12.13;69.26
69200;BME280;56313;49.804;9.952;2022-09-20T15:54:03;99831.78;;;12.32;70.41
69200;BME280;56313;49.804;9.952;2022-09-20T15:56:31;99826.53;;;12.32;69.61
69200;BME280;56313;49.804;9.952;2022-09-20T15:58:57;99826.97;;;12.27;70.31
69200;BME280;56313;49.804;9.952;2022-09-20T16:01:27;99827.94;;;12.26;70.74
69200;BME280;56313;49.804;9.952;2022-09-20T16:03:53;99832.56;;;11.95;71.85
69200;BME280;56313;49.804;9.952;2022-09-20T16:06:19;99831.31;;;11.99;71.78
69200;BME280;56313;49.804;9.952;2022-09-20T16:08:44;99841.66;;;12.20;71.72
69200;BME280;56313;49.804;9.952;2022-09-20T16:11:13;99844.00;;;12.23;68.64
69200;BME280;56313;49.804;9.952;2022-09-20T16:13:38;99852.25;;;12.28;66.83
69200;BME280;56313;49.804;9.952;2022-09-20T16:16:04;99843.94;;;12.33;66.27
69200;BME280;56313;49.804;9.952;2022-09-20T16:18:30;99841.28;;;12.43;65.42
69200;BME280;56313;49.804;9.952;2022-09-20T16:21:15;99845.53;;;12.54;64.10
69200;BME280;56313;49.804;9.952;2022-09-20T16:23:41;99848.56;;;12.49;62.62
69200;BME280;56313;49.804;9.952;2022-09-20T16:26:07;99853.69;;;12.51;62.43
69200;BME280;56313;49.804;9.952;2022-09-20T16:28:40;99862.41;;;12.51;62.36
69200;BME280;56313;49.804;9.952;2022-09-20T16:31:05;99861.56;;;12.51;62.51
69200;BME280;56313;49.804;9.952;2022-09-20T16:33:31;99857.69;;;12.55;62.38
69200;BME280;56313;49.804;9.952;2022-09-20T16:35:57;99862.50;;;12.60;65.85
69200;BME280;56313;49.804;9.952;2022-09-20T16:38:22;99858.31;;;12.39;66.89
69200;BME280;56313;49.804;9.952;2022-09-20T16:40:48;99872.75;;;12.25;68.93
69200;BME280;56313;49.804;9.952;2022-09-20T16:43:15;99868.31;;;12.25;70.33
69200;BME280;56313;49.804;9.952;2022-09-20T16:45:47;99874.38;;;12.26;69.88
69200;BME280;56313;49.804;9.952;2022-09-20T16:48:13;99874.97;;;12.20;71.71
69200;BME280;56313;49.804;9.952;2022-09-20T16:50:38;99877.19;;;12.14;72.68
69200;BME280;56313;49.804;9.952;2022-09-20T16:53:03;99876.09;;;11.97;72.79
69200;BME280;56313;49.804;9.952;2022-09-20T16:55:29;99879.78;;;12.04;73.91
69200;BME280;56313;49.804;9.952;2022-09-20T16:57:54;99883.16;;;11.87;74.65
69200;BME280;56313;49.804;9.952;2022-09-20T17:00:20;99885.63;;;11.69;74.75
69200;BME280;56313;49.804;9.952;2022-09-20T17:02:48;99893.25;;;11.62;75.25
69200;BME280;56313;49.804;9.952;2022-09-20T17:05:14;99889.66;;;11.53;76.21
69200;BME280;56313;49.804;9.952;2022-09-20T17:07:39;99892.97;;;11.45;76.38
69200;BME280;56313;49.804;9.952;2022-09-20T17:10:08;99891.31;;;11.34;76.29
69200;BME280;56313;49.804;9.952;2022-09-20T17:12:33;99894.22;;;11.31;76.21
69200;BME280;56313;49.804;9.952;2022-09-20T17:15:05;99892.28;;;11.23;74.85
69200;BME280;56313;49.804;9.952;2022-09-20T17:17:31;99893.25;;;11.32;75.81
69200;BME280;56313;49.804;9.952;2022-09-20T17:19:56;99894.47;;;11.28;75.29
69200;BME280;56313;49.804;9.952;2022-09-20T17:22:21;99904.28;;;11.26;72.42
69200;BME280;56313;49.804;9.952;2022-09-20T17:24:46;99901.47;;;11.08;72.17
69200;BME280;56313;49.804;9.952;2022-09-20T17:27:12;99903.69;;;11.02;72.53
69200;BME280;56313;49.804;9.952;2022-09-20T17:29:37;99917.50;;;11.05;71.63
69200;BME280;56313;49.804;9.952;2022-09-20T17:32:02;99909.50;;;11.16;70.12
69200;BME280;56313;49.804;9.952;2022-09-20T17:34:27;99917.63;;;11.03;71.42
69200;BME280;56313;49.804;9.952;2022-09-20T17:36:53;99919.28;;;11.04;71.45
69200;BME280;56313;49.804;9.952;2022-09-20T17:39:19;99920.38;;;11.01;72.84
69200;BME280;56313;49.804;9.952;2022-09-20T17:41:45;99917.06;;;10.99;73.47
69200;BME280;56313;49.804;9.952;2022-09-20T17:44:11;99927.66;;;10.98;74.14
69200;BME280;56313;49.804;9.952;2022-09-20T17:46:40;99929.50;;;11.07;74.47
69200;BME280;56313;49.804;9.952;2022-09-20T17:49:06;99926.53;;;10.90;74.23
69200;BME280;56313;49.804;9.952;2022-09-20T17:51:39;99921.28;;;10.81;75.91
69200;BME280;56313;49.804;9.952;2022-09-20T17:54:05;99928.47;;;10.88;74.35
69200;BME280;56313;49.804;9.952;2022-09-20T17:56:30;99928.91;;;11.03;75.07
69200;BME280;56313;49.804;9.952;2022-09-20T17:58:57;99933.78;;;11.18;73.65
69200;BME280;56313;49.804;9.952;2022-09-20T18:01:23;99938.91;;;11.20;74.16
69200;BME280;56313;49.804;9.952;2022-09-20T18:03:49;99940.66;;;11.09;72.31
69200;BME280;56313;49.804;9.952;2022-09-20T18:06:25;99942.88;;;11.14;72.45
69200;BME280;56313;49.804;9.952;2022-09-20T18:11:17;99941.84;;;10.85;73.19
69200;BME280;56313;49.804;9.952;2022-09-20T18:13:43;99953.13;;;11.17;73.31
69200;BME280;56313;49.804;9.952;2022-09-20T18:16:09;99952.97;;;11.19;73.18
69200;BME280;56313;49.804;9.952;2022-09-20T18:18:37;99950.34;;;11.19;73.71
69200;BME280;56313;49.804;9.952;2022-09-20T18:21:08;99961.19;;;10.94;74.08
69200;BME280;56313;49.804;9.952;2022-09-20T18:23:34;99965.28;;;10.87;74.69
69200;BME280;56313;49.804;9.952;2022-09-20T18:26:04;99963.72;;;10.74;75.43
69200;BME280;56313;49.804;9.952;2022-09-20T18:31:16;99975.22;;;10.83;74.72
69200;BME280;56313;49.804;9.952;2022-09-20T18:33:42;99976.44;;;11.10;74.87
69200;BME280;56313;49.804;9.952;2022-09-20T18:36:08;99985.91;;;11.01;74.40
69200;BME280;56313;49.804;9.952;2022-09-20T18:38:33;99984.19;;;10.81;75.18